sensor_id;sensor_type;location;lat;lon;timestamp;P1;durP1;ratioP1;P2;durP2;ratioP2
54937;SDS011;52756;52.826;6.214;2022-10-31T00:01:27;8.93;;;6.40;;
54937;SDS011;52756;52.826;6.214;2022-10-31T00:03:55;10.55;;;7.40;;
54937;SDS011;52756;52.826;6.214;2022-10-31T00:06:21;9.52;;;6.88;;
54937;SDS011;52756;52.826;6.214;2022-10-31T00:08:47;10.02;;;7.10;;
54937;SDS011;52756;52.826;6.214;2022-10-31T00:11:17;10.45;;;7.45;;
54937;SDS011;52756;52.826;6.214;2022-10-31T00:13:42;9.65;;;7.18;;
54937;SDS011;52756;52.826;6.214;2022-10-31T00:16:18;9.60;;;7.40;;
54937;SDS011;52756;52.826;6.214;2022-10-31T00:18:48;8.15;;;6.88;;
54937;SDS011;52756;52.826;6.214;2022-10-31T00:21:18;11.00;;;7.55;;
54937;SDS011;52756;52.826;6.214;2022-10-31T00:23:44;11.10;;;7.85;;
54937;SDS011;52756;52.826;6.214;2022-10-31T00:26:10;10.48;;;7.22;;
54937;SDS011;52756;52.826;6.214;2022-10-31T00:28:36;10.23;;;7.85;;
54937;SDS011;52756;52.826;6.214;2022-10-31T00:31:02;10.00;;;7.13;;
54937;SDS011;52756;52.826;6.214;2022-10-31T00:33:29;10.30;;;6.65;;
54937;SDS011;52756;52.826;6.214;2022-10-31T00:35:55;9.93;;;7.60;;
54937;SDS011;52756;52.826;6.214;2022-10-31T00:38:21;10.52;;;7.22;;
54937;SDS011;52756;52.826;6.214;2022-10-31T00:40:47;10.80;;;7.00;;
54937;SDS011;52756;52.826;6.214;2022-10-31T00:43:13;9.40;;;7.00;;
54937;SDS011;52756;52.826;6.214;2022-10-31T00:45:38;10.18;;;7.53;;
54937;SDS011;52756;52.826;6.214;2022-10-31T00:48:04;10.35;;;7.65;;
54937;SDS011;52756;52.826;6.214;2022-10-31T00:50:30;11.27;;;8.43;;
54937;SDS011;52756;52.826;6.214;2022-10-31T00:52:56;9.90;;;6.85;;
54937;SDS011;52756;52.826;6.214;2022-10-31T00:55:22;10.85;;;7.47;;
54937;SDS011;52756;52.826;6.214;2022-10-31T00:57:48;10.20;;;7.45;;
54937;SDS011;52756;52.826;6.214;2022-10-31T01:00:14;11.73;;;7.32;;
54937;SDS011;52756;52.826;6.214;2022-10-31T01:02:40;8.23;;;6.43;;
54937;SDS011;52756;52.826;6.214;2022-10-31T01:05:06;9.82;;;7.25;;
54937;SDS011;52756;52.826;6.214;2022-10-31T01:07:35;11.40;;;6.88;;
54937;SDS011;52756;52.826;6.214;2022-10-31T01:10:01;9.48;;;7.13;;
54937;SDS011;52756;52.826;6.214;2022-10-31T01:12:27;11.93;;;8.18;;
54937;SDS011;52756;52.826;6.214;2022-10-31T01:14:52;9.52;;;7.15;;
54937;SDS011;52756;52.826;6.214;2022-10-31T01:17:18;11.35;;;8.25;;
54937;SDS011;52756;52.826;6.214;2022-10-31T01:19:44;9.90;;;8.27;;
54937;SDS011;52756;52.826;6.214;2022-10-31T01:22:10;13.98;;;10.30;;
54937;SDS011;52756;52.826;6.214;2022-10-31T01:24:36;10.73;;;7.60;;
54937;SDS011;52756;52.826;6.214;2022-10-31T01:27:01;11.43;;;7.68;;
54937;SDS011;52756;52.826;6.214;2022-10-31T01:29:27;10.05;;;7.05;;
54937;SDS011;52756;52.826;6.214;2022-10-31T01:31:53;7.85;;;6.93;;
54937;SDS011;52756;52.826;6.214;2022-10-31T01:34:18;9.65;;;7.70;;
54937;SDS011;52756;52.826;6.214;2022-10-31T01:36:44;9.77;;;7.53;;
54937;SDS011;52756;52.826;6.214;2022-10-31T01:39:13;11.35;;;8.65;;
54937;SDS011;52756;52.826;6.214;2022-10-31T01:41:44;9.00;;;7.50;;
54937;SDS011;52756;52.826;6.214;2022-10-31T01:46:45;11.57;;;9.07;;
54937;SDS011;52756;52.826;6.214;2022-10-31T01:50:14;9.55;;;6.60;;
54937;SDS011;52756;52.826;6.214;2022-10-31T01:54:52;10.98;;;7.78;;
54937;SDS011;52756;52.826;6.214;2022-10-31T01:57:22;9.23;;;7.05;;
54937;SDS011;52756;52.826;6.214;2022-10-31T01:59:51;9.07;;;6.72;;
54937;SDS011;52756;52.826;6.214;2022-10-31T02:02:20;10.35;;;7.20;;
54937;SDS011;52756;52.826;6.214;2022-10-31T02:04:46;13.10;;;9.07;;
54937;SDS011;52756;52.826;6.214;2022-10-31T02:07:16;11.30;;;9.07;;
54937;SDS011;52756;52.826;6.214;2022-10-31T02:09:46;13.68;;;9.07;;
54937;SDS011;52756;52.826;6.214;2022-10-31T02:12:14;14.02;;;10.38;;
54937;SDS011;52756;52.826;6.214;2022-10-31T02:14:41;11.13;;;8.63;;
54937;SDS011;52756;52.826;6.214;2022-10-31T02:17:07;9.75;;;7.47;;
54937;SDS011;52756;52.826;6.214;2022-10-31T02:22:26;14.90;;;8.70;;
54937;SDS011;52756;52.826;6.214;2022-10-31T02:28:05;12.32;;;8.23;;
54937;SDS011;52756;52.826;6.214;2022-10-31T02:33:59;11.02;;;8.23;;
54937;SDS011;52756;52.826;6.214;2022-10-31T02:36:56;10.45;;;7.63;;
54937;SDS011;52756;52.826;6.214;2022-10-31T02:39:46;10.23;;;8.07;;
54937;SDS011;52756;52.826;6.214;2022-10-31T02:42:27;9.23;;;6.88;;
54937;SDS011;52756;52.826;6.214;2022-10-31T02:47:39;10.80;;;8.93;;
54937;SDS011;52756;52.826;6.214;2022-10-31T02:50:07;12.10;;;9.20;;
54937;SDS011;52756;52.826;6.214;2022-10-31T02:52:40;11.82;;;7.32;;
54937;SDS011;52756;52.826;6.214;2022-10-31T02:55:10;8.68;;;6.65;;
54937;SDS011;52756;52.826;6.214;2022-10-31T02:57:57;10.63;;;7.00;;
54937;SDS011;52756;52.826;6.214;2022-10-31T03:00:26;7.75;;;6.28;;
54937;SDS011;52756;52.826;6.214;2022-10-31T03:06:09;9.18;;;6.80;;
54937;SDS011;52756;52.826;6.214;2022-10-31T03:14:31;8.57;;;7.00;;
54937;SDS011;52756;52.826;6.214;2022-10-31T03:17:05;9.60;;;6.53;;
54937;SDS011;52756;52.826;6.214;2022-10-31T03:19:42;8.70;;;5.80;;
54937;SDS011;52756;52.826;6.214;2022-10-31T03:22:21;8.55;;;6.18;;
54937;SDS011;52756;52.826;6.214;2022-10-31T03:24:49;8.60;;;6.10;;
54937;SDS011;52756;52.826;6.214;2022-10-31T03:27:18;9.05;;;6.82;;
54937;SDS011;52756;52.826;6.214;2022-10-31T03:29:46;8.77;;;6.47;;
54937;SDS011;52756;52.826;6.214;2022-10-31T03:32:16;7.93;;;6.47;;
54937;SDS011;52756;52.826;6.214;2022-10-31T03:34:47;9.30;;;6.88;;
54937;SDS011;52756;52.826;6.214;2022-10-31T03:37:16;10.00;;;6.45;;
54937;SDS011;52756;52.826;6.214;2022-10-31T03:39:44;7.80;;;6.00;;
54937;SDS011;52756;52.826;6.214;2022-10-31T03:42:14;10.13;;;7.65;;
54937;SDS011;52756;52.826;6.214;2022-10-31T03:44:42;9.75;;;6.63;;
54937;SDS011;52756;52.826;6.214;2022-10-31T03:47:15;8.10;;;6.60;;
54937;SDS011;52756;52.826;6.214;2022-10-31T03:49:41;8.88;;;7.10;;
54937;SDS011;52756;52.826;6.214;2022-10-31T03:54:54;8.43;;;6.32;;
54937;SDS011;52756;52.826;6.214;2022-10-31T03:57:24;7.55;;;6.55;;
54937;SDS011;52756;52.826;6.214;2022-10-31T04:00:00;10.05;;;6.32;;
54937;SDS011;52756;52.826;6.214;2022-10-31T04:02:33;9.02;;;6.45;;
54937;SDS011;52756;52.826;6.214;2022-10-31T04:05:03;8.35;;;6.10;;
54937;SDS011;52756;52.826;6.214;2022-10-31T04:07:33;8.75;;;7.00;;
54937;SDS011;52756;52.826;6.214;2022-10-31T04:10:04;8.15;;;6.95;;
54937;SDS011;52756;52.826;6.214;2022-10-31T04:12:32;8.25;;;6.05;;
54937;SDS011;52756;52.826;6.214;2022-10-31T04:15:00;7.28;;;5.95;;
54937;SDS011;52756;52.826;6.214;2022-10-31T04:17:29;6.78;;;6.07;;
54937;SDS011;52756;52.826;6.214;2022-10-31T04:20:01;9.88;;;6.50;;
54937;SDS011;52756;52.826;6.214;2022-10-31T04:22:28;7.78;;;5.70;;
54937;SDS011;52756;52.826;6.214;2022-10-31T04:24:54;7.82;;;5.15;;
54937;SDS011;52756;52.826;6.214;2022-10-31T04:27:19;6.18;;;4.95;;
54937;SDS011;52756;52.826;6.214;2022-10-31T04:29:45;7.30;;;5.35;;
54937;SDS011;52756;52.826;6.214;2022-10-31T04:32:11;7.28;;;5.10;;
54937;SDS011;52756;52.826;6.214;2022-10-31T04:34:36;9.65;;;6.03;;
54937;SDS011;52756;52.826;6.214;2022-10-31T04:37:02;8.23;;;6.30;;
54937;SDS011;52756;52.826;6.214;2022-10-31T04:39:27;7.05;;;5.60;;
54937;SDS011;52756;52.826;6.214;2022-10-31T04:41:53;7.68;;;5.57;;
54937;SDS011;52756;52.826;6.214;2022-10-31T04:44:19;7.35;;;5.65;;
54937;SDS011;52756;52.826;6.214;2022-10-31T04:46:44;6.88;;;5.55;;
54937;SDS011;52756;52.826;6.214;2022-10-31T04:49:10;6.68;;;5.18;;
54937;SDS011;52756;52.826;6.214;2022-10-31T04:51:36;9.13;;;5.95;;
54937;SDS011;52756;52.826;6.214;2022-10-31T04:54:01;5.85;;;4.85;;
54937;SDS011;52756;52.826;6.214;2022-10-31T04:56:27;6.15;;;5.40;;
54937;SDS011;52756;52.826;6.214;2022-10-31T04:58:53;6.03;;;4.75;;
54937;SDS011;52756;52.826;6.214;2022-10-31T05:01:19;7.43;;;4.97;;
54937;SDS011;52756;52.826;6.214;2022-10-31T05:03:44;6.50;;;4.95;;
54937;SDS011;52756;52.826;6.214;2022-10-31T05:06:10;7.13;;;5.45;;
54937;SDS011;52756;52.826;6.214;2022-10-31T05:08:36;11.77;;;5.97;;
54937;SDS011;52756;52.826;6.214;2022-10-31T05:11:01;7.80;;;6.50;;
54937;SDS011;52756;52.826;6.214;2022-10-31T05:13:28;7.50;;;5.22;;
54937;SDS011;52756;52.826;6.214;2022-10-31T05:15:54;5.78;;;4.68;;
54937;SDS011;52756;52.826;6.214;2022-10-31T05:18:20;7.22;;;5.68;;
54937;SDS011;52756;52.826;6.214;2022-10-31T05:20:45;6.22;;;5.20;;
54937;SDS011;52756;52.826;6.214;2022-10-31T05:23:11;6.47;;;4.60;;
54937;SDS011;52756;52.826;6.214;2022-10-31T05:25:36;5.75;;;4.05;;
54937;SDS011;52756;52.826;6.214;2022-10-31T05:28:02;5.63;;;4.22;;
54937;SDS011;52756;52.826;6.214;2022-10-31T05:30:30;4.68;;;4.03;;
54937;SDS011;52756;52.826;6.214;2022-10-31T05:32:56;6.57;;;4.50;;
54937;SDS011;52756;52.826;6.214;2022-10-31T05:35:23;6.38;;;4.30;;
54937;SDS011;52756;52.826;6.214;2022-10-31T05:37:54;5.78;;;3.85;;
54937;SDS011;52756;52.826;6.214;2022-10-31T05:40:20;5.97;;;4.25;;
54937;SDS011;52756;52.826;6.214;2022-10-31T05:42:46;5.95;;;5.18;;
54937;SDS011;52756;52.826;6.214;2022-10-31T05:45:15;8.55;;;6.40;;
54937;SDS011;52756;52.826;6.214;2022-10-31T05:47:42;9.60;;;8.23;;
54937;SDS011;52756;52.826;6.214;2022-10-31T05:50:22;9.68;;;8.23;;
54937;SDS011;52756;52.826;6.214;2022-10-31T05:52:53;9.55;;;7.57;;
54937;SDS011;52756;52.826;6.214;2022-10-31T05:55:23;6.68;;;4.60;;
54937;SDS011;52756;52.826;6.214;2022-10-31T05:57:50;6.93;;;5.47;;
54937;SDS011;52756;52.826;6.214;2022-10-31T06:00:17;6.68;;;5.10;;
54937;SDS011;52756;52.826;6.214;2022-10-31T06:02:43;5.97;;;4.65;;
54937;SDS011;52756;52.826;6.214;2022-10-31T06:05:09;6.55;;;5.07;;
54937;SDS011;52756;52.826;6.214;2022-10-31T06:07:35;8.00;;;6.50;;
54937;SDS011;52756;52.826;6.214;2022-10-31T06:10:01;9.95;;;6.30;;
54937;SDS011;52756;52.826;6.214;2022-10-31T06:12:29;7.82;;;6.25;;
54937;SDS011;52756;52.826;6.214;2022-10-31T06:14:54;9.10;;;6.10;;
54937;SDS011;52756;52.826;6.214;2022-10-31T06:17:20;7.20;;;5.00;;
54937;SDS011;52756;52.826;6.214;2022-10-31T06:19:46;6.93;;;5.60;;
54937;SDS011;52756;52.826;6.214;2022-10-31T06:22:11;10.38;;;7.30;;
54937;SDS011;52756;52.826;6.214;2022-10-31T06:24:37;9.45;;;7.25;;
54937;SDS011;52756;52.826;6.214;2022-10-31T06:27:03;10.13;;;7.40;;
54937;SDS011;52756;52.826;6.214;2022-10-31T06:29:30;11.00;;;7.93;;
54937;SDS011;52756;52.826;6.214;2022-10-31T06:31:56;10.70;;;7.75;;
54937;SDS011;52756;52.826;6.214;2022-10-31T06:34:24;9.00;;;7.97;;
54937;SDS011;52756;52.826;6.214;2022-10-31T06:36:50;7.90;;;7.10;;
54937;SDS011;52756;52.826;6.214;2022-10-31T06:39:16;10.63;;;8.07;;
54937;SDS011;52756;52.826;6.214;2022-10-31T06:41:41;9.82;;;8.10;;
54937;SDS011;52756;52.826;6.214;2022-10-31T06:44:07;8.60;;;7.10;;
54937;SDS011;52756;52.826;6.214;2022-10-31T06:46:33;9.75;;;7.45;;
54937;SDS011;52756;52.826;6.214;2022-10-31T06:48:59;11.80;;;9.13;;
54937;SDS011;52756;52.826;6.214;2022-10-31T06:51:24;11.40;;;8.95;;
54937;SDS011;52756;52.826;6.214;2022-10-31T06:53:50;15.30;;;9.25;;
54937;SDS011;52756;52.826;6.214;2022-10-31T06:56:16;10.25;;;9.00;;
54937;SDS011;52756;52.826;6.214;2022-10-31T06:58:42;10.00;;;8.45;;
54937;SDS011;52756;52.826;6.214;2022-10-31T07:01:07;10.13;;;8.23;;
54937;SDS011;52756;52.826;6.214;2022-10-31T07:03:33;9.40;;;8.35;;
54937;SDS011;52756;52.826;6.214;2022-10-31T07:05:59;10.85;;;8.45;;
54937;SDS011;52756;52.826;6.214;2022-10-31T07:08:24;12.27;;;9.55;;
54937;SDS011;52756;52.826;6.214;2022-10-31T07:10:54;11.30;;;9.38;;
54937;SDS011;52756;52.826;6.214;2022-10-31T07:13:22;11.13;;;9.35;;
54937;SDS011;52756;52.826;6.214;2022-10-31T07:15:51;14.00;;;11.15;;
54937;SDS011;52756;52.826;6.214;2022-10-31T07:18:19;11.68;;;9.98;;
54937;SDS011;52756;52.826;6.214;2022-10-31T07:20:45;16.10;;;11.63;;
54937;SDS011;52756;52.826;6.214;2022-10-31T07:23:10;11.52;;;9.65;;
54937;SDS011;52756;52.826;6.214;2022-10-31T07:25:39;14.50;;;10.48;;
54937;SDS011;52756;52.826;6.214;2022-10-31T07:28:06;13.90;;;10.43;;
54937;SDS011;52756;52.826;6.214;2022-10-31T07:30:32;18.08;;;12.40;;
54937;SDS011;52756;52.826;6.214;2022-10-31T07:32:57;13.65;;;10.85;;
54937;SDS011;52756;52.826;6.214;2022-10-31T07:35:24;15.38;;;11.85;;
54937;SDS011;52756;52.826;6.214;2022-10-31T07:37:52;16.63;;;11.93;;
54937;SDS011;52756;52.826;6.214;2022-10-31T07:40:18;12.52;;;10.93;;
54937;SDS011;52756;52.826;6.214;2022-10-31T07:42:45;14.35;;;11.48;;
54937;SDS011;52756;52.826;6.214;2022-10-31T07:45:13;15.07;;;10.57;;
54937;SDS011;52756;52.826;6.214;2022-10-31T07:50:11;13.50;;;10.63;;
54937;SDS011;52756;52.826;6.214;2022-10-31T07:52:39;14.63;;;10.90;;
54937;SDS011;52756;52.826;6.214;2022-10-31T07:55:05;13.23;;;10.40;;
54937;SDS011;52756;52.826;6.214;2022-10-31T07:57:32;14.18;;;10.35;;
54937;SDS011;52756;52.826;6.214;2022-10-31T07:59:57;13.15;;;10.88;;
54937;SDS011;52756;52.826;6.214;2022-10-31T08:02:23;12.65;;;10.38;;
54937;SDS011;52756;52.826;6.214;2022-10-31T08:04:49;12.85;;;11.23;;
54937;SDS011;52756;52.826;6.214;2022-10-31T08:07:15;13.57;;;12.15;;
54937;SDS011;52756;52.826;6.214;2022-10-31T08:09:41;18.17;;;12.50;;
54937;SDS011;52756;52.826;6.214;2022-10-31T08:12:07;14.50;;;10.38;;
54937;SDS011;52756;52.826;6.214;2022-10-31T08:14:33;16.25;;;12.93;;
54937;SDS011;52756;52.826;6.214;2022-10-31T08:16:58;17.65;;;14.48;;
54937;SDS011;52756;52.826;6.214;2022-10-31T08:19:24;20.05;;;14.15;;
54937;SDS011;52756;52.826;6.214;2022-10-31T08:21:50;18.08;;;13.23;;
54937;SDS011;52756;52.826;6.214;2022-10-31T08:24:17;22.75;;;14.13;;
54937;SDS011;52756;52.826;6.214;2022-10-31T08:26:43;17.30;;;13.52;;
54937;SDS011;52756;52.826;6.214;2022-10-31T08:29:08;18.00;;;13.38;;
54937;SDS011;52756;52.826;6.214;2022-10-31T08:31:34;16.33;;;13.65;;
54937;SDS011;52756;52.826;6.214;2022-10-31T08:34:00;17.58;;;13.82;;
54937;SDS011;52756;52.826;6.214;2022-10-31T08:36:26;19.52;;;14.15;;
54937;SDS011;52756;52.826;6.214;2022-10-31T08:38:53;18.13;;;14.43;;
54937;SDS011;52756;52.826;6.214;2022-10-31T08:41:18;20.77;;;14.50;;
54937;SDS011;52756;52.826;6.214;2022-10-31T08:43:44;22.17;;;16.30;;
54937;SDS011;52756;52.826;6.214;2022-10-31T08:46:10;21.48;;;15.82;;
54937;SDS011;52756;52.826;6.214;2022-10-31T08:48:36;19.65;;;16.38;;
54937;SDS011;52756;52.826;6.214;2022-10-31T08:51:02;23.23;;;17.08;;
54937;SDS011;52756;52.826;6.214;2022-10-31T08:53:28;21.92;;;16.67;;
54937;SDS011;52756;52.826;6.214;2022-10-31T08:55:54;22.20;;;18.25;;
54937;SDS011;52756;52.826;6.214;2022-10-31T08:58:20;22.83;;;18.83;;
54937;SDS011;52756;52.826;6.214;2022-10-31T09:00:48;24.90;;;18.88;;
54937;SDS011;52756;52.826;6.214;2022-10-31T09:03:21;25.13;;;19.63;;
54937;SDS011;52756;52.826;6.214;2022-10-31T09:05:48;25.35;;;19.73;;
54937;SDS011;52756;52.826;6.214;2022-10-31T09:08:15;23.60;;;18.95;;
54937;SDS011;52756;52.826;6.214;2022-10-31T09:10:41;23.92;;;19.33;;
54937;SDS011;52756;52.826;6.214;2022-10-31T09:13:09;23.73;;;19.10;;
54937;SDS011;52756;52.826;6.214;2022-10-31T09:15:37;26.23;;;20.02;;
54937;SDS011;52756;52.826;6.214;2022-10-31T09:18:07;23.95;;;19.48;;
54937;SDS011;52756;52.826;6.214;2022-10-31T09:20:34;23.50;;;20.33;;
54937;SDS011;52756;52.826;6.214;2022-10-31T09:23:05;28.77;;;20.95;;
54937;SDS011;52756;52.826;6.214;2022-10-31T09:25:36;23.33;;;19.08;;
54937;SDS011;52756;52.826;6.214;2022-10-31T09:28:02;27.77;;;20.38;;
54937;SDS011;52756;52.826;6.214;2022-10-31T09:30:30;26.55;;;21.48;;
54937;SDS011;52756;52.826;6.214;2022-10-31T09:32:58;26.90;;;20.05;;
54937;SDS011;52756;52.826;6.214;2022-10-31T09:35:28;29.63;;;21.45;;
54937;SDS011;52756;52.826;6.214;2022-10-31T09:37:55;24.85;;;19.73;;
54937;SDS011;52756;52.826;6.214;2022-10-31T09:40:40;30.42;;;22.63;;
54937;SDS011;52756;52.826;6.214;2022-10-31T09:45:42;27.10;;;21.25;;
54937;SDS011;52756;52.826;6.214;2022-10-31T09:51:04;27.13;;;22.00;;
54937;SDS011;52756;52.826;6.214;2022-10-31T09:56:15;26.13;;;20.63;;
54937;SDS011;52756;52.826;6.214;2022-10-31T09:58:53;27.42;;;21.13;;
54937;SDS011;52756;52.826;6.214;2022-10-31T10:01:26;26.80;;;20.23;;
54937;SDS011;52756;52.826;6.214;2022-10-31T10:06:47;25.38;;;20.23;;
54937;SDS011;52756;52.826;6.214;2022-10-31T10:09:15;25.17;;;18.88;;
54937;SDS011;52756;52.826;6.214;2022-10-31T10:14:20;26.70;;;20.30;;
54937;SDS011;52756;52.826;6.214;2022-10-31T10:19:41;26.45;;;18.67;;
54937;SDS011;52756;52.826;6.214;2022-10-31T10:22:23;24.60;;;19.50;;
54937;SDS011;52756;52.826;6.214;2022-10-31T10:25:14;25.17;;;18.63;;
54937;SDS011;52756;52.826;6.214;2022-10-31T10:27:59;23.33;;;18.50;;
54937;SDS011;52756;52.826;6.214;2022-10-31T10:33:03;23.65;;;18.70;;
54937;SDS011;52756;52.826;6.214;2022-10-31T10:40:43;23.95;;;18.15;;
54937;SDS011;52756;52.826;6.214;2022-10-31T10:45:49;21.67;;;16.50;;
54937;SDS011;52756;52.826;6.214;2022-10-31T10:51:36;19.80;;;16.35;;
54937;SDS011;52756;52.826;6.214;2022-10-31T10:59:20;21.92;;;15.85;;
54937;SDS011;52756;52.826;6.214;2022-10-31T11:01:48;22.63;;;16.25;;
54937;SDS011;52756;52.826;6.214;2022-10-31T11:04:26;25.55;;;16.10;;
54937;SDS011;52756;52.826;6.214;2022-10-31T11:06:59;19.70;;;15.93;;
54937;SDS011;52756;52.826;6.214;2022-10-31T11:09:26;20.45;;;16.35;;
54937;SDS011;52756;52.826;6.214;2022-10-31T11:11:52;17.98;;;14.95;;
54937;SDS011;52756;52.826;6.214;2022-10-31T11:14:18;21.35;;;16.35;;
54937;SDS011;52756;52.826;6.214;2022-10-31T11:16:47;19.27;;;14.77;;
54937;SDS011;52756;52.826;6.214;2022-10-31T11:19:22;21.33;;;16.05;;
54937;SDS011;52756;52.826;6.214;2022-10-31T11:21:53;20.67;;;14.70;;
54937;SDS011;52756;52.826;6.214;2022-10-31T11:24:30;19.42;;;14.43;;
54937;SDS011;52756;52.826;6.214;2022-10-31T11:27:20;19.67;;;15.13;;
54937;SDS011;52756;52.826;6.214;2022-10-31T11:29:48;20.45;;;15.30;;
54937;SDS011;52756;52.826;6.214;2022-10-31T11:32:21;19.95;;;14.48;;
54937;SDS011;52756;52.826;6.214;2022-10-31T11:35:00;20.00;;;14.65;;
54937;SDS011;52756;52.826;6.214;2022-10-31T11:37:29;18.73;;;15.43;;
54937;SDS011;52756;52.826;6.214;2022-10-31T11:40:00;19.98;;;14.90;;
54937;SDS011;52756;52.826;6.214;2022-10-31T11:42:39;17.77;;;14.70;;
54937;SDS011;52756;52.826;6.214;2022-10-31T11:45:13;19.98;;;14.15;;
54937;SDS011;52756;52.826;6.214;2022-10-31T11:47:41;20.75;;;14.73;;
54937;SDS011;52756;52.826;6.214;2022-10-31T11:50:10;19.52;;;14.77;;
54937;SDS011;52756;52.826;6.214;2022-10-31T11:52:43;17.17;;;13.95;;
54937;SDS011;52756;52.826;6.214;2022-10-31T11:57:48;17.33;;;11.52;;
54937;SDS011;52756;52.826;6.214;2022-10-31T12:00:29;14.15;;;10.73;;
54937;SDS011;52756;52.826;6.214;2022-10-31T12:03:12;17.88;;;12.55;;
54937;SDS011;52756;52.826;6.214;2022-10-31T12:05:46;18.20;;;12.57;;
54937;SDS011;52756;52.826;6.214;2022-10-31T12:08:29;16.40;;;11.27;;
54937;SDS011;52756;52.826;6.214;2022-10-31T12:11:03;18.58;;;11.35;;
54937;SDS011;52756;52.826;6.214;2022-10-31T12:16:36;14.80;;;11.48;;
54937;SDS011;52756;52.826;6.214;2022-10-31T12:19:20;16.17;;;10.10;;
54937;SDS011;52756;52.826;6.214;2022-10-31T12:29:47;13.43;;;8.70;;
54937;SDS011;52756;52.826;6.214;2022-10-31T12:35:33;10.88;;;7.45;;
54937;SDS011;52756;52.826;6.214;2022-10-31T12:38:37;13.38;;;8.55;;
54937;SDS011;52756;52.826;6.214;2022-10-31T12:41:31;11.63;;;7.32;;
54937;SDS011;52756;52.826;6.214;2022-10-31T12:52:23;12.63;;;7.95;;
54937;SDS011;52756;52.826;6.214;2022-10-31T13:00:07;11.85;;;7.68;;
54937;SDS011;52756;52.826;6.214;2022-10-31T13:05:27;15.05;;;9.20;;
54937;SDS011;52756;52.826;6.214;2022-10-31T13:07:58;15.10;;;8.30;;
54937;SDS011;52756;52.826;6.214;2022-10-31T13:10:42;10.30;;;7.20;;
54937;SDS011;52756;52.826;6.214;2022-10-31T13:13:13;12.07;;;6.47;;
54937;SDS011;52756;52.826;6.214;2022-10-31T13:15:48;12.68;;;7.40;;
54937;SDS011;52756;52.826;6.214;2022-10-31T13:18:22;12.57;;;7.57;;
54937;SDS011;52756;52.826;6.214;2022-10-31T13:20:57;13.85;;;7.13;;
54937;SDS011;52756;52.826;6.214;2022-10-31T13:23:31;14.95;;;6.88;;
54937;SDS011;52756;52.826;6.214;2022-10-31T13:25:59;9.77;;;6.13;;
54937;SDS011;52756;52.826;6.214;2022-10-31T13:31:09;11.27;;;6.78;;
54937;SDS011;52756;52.826;6.214;2022-10-31T13:33:38;10.68;;;6.88;;
54937;SDS011;52756;52.826;6.214;2022-10-31T13:38:51;12.55;;;7.97;;
54937;SDS011;52756;52.826;6.214;2022-10-31T13:41:28;13.68;;;8.00;;
54937;SDS011;52756;52.826;6.214;2022-10-31T13:44:22;12.70;;;7.57;;
54937;SDS011;52756;52.826;6.214;2022-10-31T13:46:58;10.63;;;6.32;;
54937;SDS011;52756;52.826;6.214;2022-10-31T13:49:25;9.98;;;6.68;;
54937;SDS011;52756;52.826;6.214;2022-10-31T13:52:16;10.48;;;7.20;;
54937;SDS011;52756;52.826;6.214;2022-10-31T13:54:48;9.48;;;6.50;;
54937;SDS011;52756;52.826;6.214;2022-10-31T14:02:46;10.20;;;6.78;;
54937;SDS011;52756;52.826;6.214;2022-10-31T14:05:25;10.90;;;6.85;;
54937;SDS011;52756;52.826;6.214;2022-10-31T14:08:03;11.43;;;7.28;;
54937;SDS011;52756;52.826;6.214;2022-10-31T14:10:31;11.75;;;8.35;;
54937;SDS011;52756;52.826;6.214;2022-10-31T14:13:17;12.02;;;7.22;;
54937;SDS011;52756;52.826;6.214;2022-10-31T14:16:06;11.27;;;7.45;;
54937;SDS011;52756;52.826;6.214;2022-10-31T14:18:43;11.55;;;7.22;;
54937;SDS011;52756;52.826;6.214;2022-10-31T14:21:15;10.13;;;7.47;;
54937;SDS011;52756;52.826;6.214;2022-10-31T14:23:47;11.07;;;7.10;;
54937;SDS011;52756;52.826;6.214;2022-10-31T14:28:48;11.38;;;7.47;;
54937;SDS011;52756;52.826;6.214;2022-10-31T14:31:32;9.65;;;7.20;;
54937;SDS011;52756;52.826;6.214;2022-10-31T14:45:13;10.52;;;7.72;;
54937;SDS011;52756;52.826;6.214;2022-10-31T14:53:04;10.98;;;7.88;;
54937;SDS011;52756;52.826;6.214;2022-10-31T14:55:32;11.02;;;7.70;;
54937;SDS011;52756;52.826;6.214;2022-10-31T14:57:59;9.40;;;7.53;;
54937;SDS011;52756;52.826;6.214;2022-10-31T15:00:28;14.35;;;9.07;;
54937;SDS011;52756;52.826;6.214;2022-10-31T15:05:45;13.65;;;8.65;;
54937;SDS011;52756;52.826;6.214;2022-10-31T15:11:02;11.82;;;8.90;;
54937;SDS011;52756;52.826;6.214;2022-10-31T15:13:40;12.80;;;8.60;;
54937;SDS011;52756;52.826;6.214;2022-10-31T15:16:07;12.77;;;8.65;;
54937;SDS011;52756;52.826;6.214;2022-10-31T15:18:35;12.15;;;9.38;;
54937;SDS011;52756;52.826;6.214;2022-10-31T15:21:09;15.25;;;9.13;;
54937;SDS011;52756;52.826;6.214;2022-10-31T15:23:35;16.13;;;9.88;;
54937;SDS011;52756;52.826;6.214;2022-10-31T15:26:01;15.57;;;9.65;;
54937;SDS011;52756;52.826;6.214;2022-10-31T15:28:30;14.75;;;9.15;;
54937;SDS011;52756;52.826;6.214;2022-10-31T15:30:57;18.10;;;10.13;;
54937;SDS011;52756;52.826;6.214;2022-10-31T15:33:25;14.23;;;9.57;;
54937;SDS011;52756;52.826;6.214;2022-10-31T15:36:01;13.10;;;8.98;;
54937;SDS011;52756;52.826;6.214;2022-10-31T15:38:28;18.50;;;9.50;;
54937;SDS011;52756;52.826;6.214;2022-10-31T15:40:59;11.68;;;8.95;;
54937;SDS011;52756;52.826;6.214;2022-10-31T15:43:35;14.90;;;9.52;;
54937;SDS011;52756;52.826;6.214;2022-10-31T15:46:03;15.02;;;9.57;;
54937;SDS011;52756;52.826;6.214;2022-10-31T15:48:32;11.30;;;8.32;;
54937;SDS011;52756;52.826;6.214;2022-10-31T15:50:59;13.63;;;9.65;;
54937;SDS011;52756;52.826;6.214;2022-10-31T15:53:27;15.07;;;8.43;;
54937;SDS011;52756;52.826;6.214;2022-10-31T15:56:10;15.27;;;8.65;;
54937;SDS011;52756;52.826;6.214;2022-10-31T15:58:44;14.07;;;8.20;;
54937;SDS011;52756;52.826;6.214;2022-10-31T16:01:29;10.30;;;8.27;;
54937;SDS011;52756;52.826;6.214;2022-10-31T16:04:00;14.13;;;8.68;;
54937;SDS011;52756;52.826;6.214;2022-10-31T16:06:28;13.13;;;9.02;;
54937;SDS011;52756;52.826;6.214;2022-10-31T16:08:53;13.93;;;8.32;;
54937;SDS011;52756;52.826;6.214;2022-10-31T16:11:35;11.88;;;7.88;;
54937;SDS011;52756;52.826;6.214;2022-10-31T16:16:41;11.60;;;8.00;;
54937;SDS011;52756;52.826;6.214;2022-10-31T16:19:21;14.35;;;8.15;;
54937;SDS011;52756;52.826;6.214;2022-10-31T16:21:54;12.43;;;8.02;;
54937;SDS011;52756;52.826;6.214;2022-10-31T16:24:50;14.32;;;9.23;;
54937;SDS011;52756;52.826;6.214;2022-10-31T16:27:24;14.02;;;8.60;;
54937;SDS011;52756;52.826;6.214;2022-10-31T16:29:54;12.88;;;8.25;;
54937;SDS011;52756;52.826;6.214;2022-10-31T16:32:25;12.98;;;7.95;;
54937;SDS011;52756;52.826;6.214;2022-10-31T16:37:41;13.95;;;9.13;;
54937;SDS011;52756;52.826;6.214;2022-10-31T16:40:08;13.70;;;8.18;;
54937;SDS011;52756;52.826;6.214;2022-10-31T16:42:35;13.57;;;8.90;;
54937;SDS011;52756;52.826;6.214;2022-10-31T16:45:01;14.55;;;8.80;;
54937;SDS011;52756;52.826;6.214;2022-10-31T16:47:27;13.15;;;8.52;;
54937;SDS011;52756;52.826;6.214;2022-10-31T16:49:52;15.70;;;8.73;;
54937;SDS011;52756;52.826;6.214;2022-10-31T16:52:18;14.45;;;8.75;;
54937;SDS011;52756;52.826;6.214;2022-10-31T16:54:44;11.38;;;9.00;;
54937;SDS011;52756;52.826;6.214;2022-10-31T16:57:14;13.43;;;9.60;;
54937;SDS011;52756;52.826;6.214;2022-10-31T16:59:42;13.98;;;10.13;;
54937;SDS011;52756;52.826;6.214;2022-10-31T17:02:17;12.90;;;9.25;;
54937;SDS011;52756;52.826;6.214;2022-10-31T17:04:43;13.82;;;10.55;;
54937;SDS011;52756;52.826;6.214;2022-10-31T17:07:09;12.05;;;9.10;;
54937;SDS011;52756;52.826;6.214;2022-10-31T17:09:34;14.35;;;9.45;;